New Richmond, Wisconsin
Current Conditions -  °F | °C
As of 6:15 AM on Monday 20 Oct 2014 (Local Time) from KRNH Reporting Station
Clear Clear  
Wind Chill: 42°   Ceiling: Unl
Heat Index: 42°   Visibility: 10mi
Dew Point: 40°   Wind: 3mph
Humidity: 94%   Direction: 300°WNW
Pressure: 29.94"   Gusts: NA
Location:  45.12°N, 92.54°W
Report Text: KRNH 201115Z AUTO 30003KT 10SM CLR 06/05 A2994 RMK AO2 T00550046
Loading
Personal Weather Stations






























Interactive Weather Map
Tropical Storm Tracking
New forecast layout! Learn more

10-Day Weather Forecast

Advertisements
Track Severe Weather on mobile